sensor_id;sensor_type;location;lat;lon;timestamp;P1;durP1;ratioP1;P2;durP2;ratioP2
17631;SDS011;8934;51.194;17.150;2022-10-03T00:06:20;4.85;;;3.63;;
17631;SDS011;8934;51.194;17.150;2022-10-03T00:09:22;7.32;;;3.60;;
17631;SDS011;8934;51.194;17.150;2022-10-03T00:12:33;2.95;;;2.67;;
17631;SDS011;8934;51.194;17.150;2022-10-03T00:15:33;7.15;;;3.65;;
17631;SDS011;8934;51.194;17.150;2022-10-03T00:18:32;9.43;;;3.97;;
17631;SDS011;8934;51.194;17.150;2022-10-03T00:21:32;8.70;;;3.85;;
17631;SDS011;8934;51.194;17.150;2022-10-03T00:24:30;6.63;;;3.53;;
17631;SDS011;8934;51.194;17.150;2022-10-03T00:27:32;5.70;;;3.67;;
17631;SDS011;8934;51.194;17.150;2022-10-03T00:30:25;7.50;;;3.60;;
17631;SDS011;8934;51.194;17.150;2022-10-03T00:33:29;5.88;;;3.70;;
17631;SDS011;8934;51.194;17.150;2022-10-03T00:36:27;6.35;;;3.42;;
17631;SDS011;8934;51.194;17.150;2022-10-03T00:39:29;6.40;;;4.00;;
17631;SDS011;8934;51.194;17.150;2022-10-03T00:42:51;6.45;;;3.47;;
17631;SDS011;8934;51.194;17.150;2022-10-03T00:53:11;8.15;;;4.30;;
17631;SDS011;8934;51.194;17.150;2022-10-03T00:56:25;10.40;;;3.85;;
17631;SDS011;8934;51.194;17.150;2022-10-03T00:59:27;4.68;;;3.17;;
17631;SDS011;8934;51.194;17.150;2022-10-03T01:02:33;8.35;;;3.58;;
17631;SDS011;8934;51.194;17.150;2022-10-03T01:05:34;9.90;;;3.78;;
17631;SDS011;8934;51.194;17.150;2022-10-03T01:08:45;9.57;;;3.20;;
17631;SDS011;8934;51.194;17.150;2022-10-03T01:11:47;5.55;;;3.97;;
17631;SDS011;8934;51.194;17.150;2022-10-03T01:14:57;6.50;;;4.20;;
17631;SDS011;8934;51.194;17.150;2022-10-03T01:18:17;8.65;;;3.42;;
17631;SDS011;8934;51.194;17.150;2022-10-03T01:21:15;7.22;;;3.50;;
17631;SDS011;8934;51.194;17.150;2022-10-03T01:24:22;9.95;;;3.88;;
17631;SDS011;8934;51.194;17.150;2022-10-03T01:27:27;9.65;;;3.58;;
17631;SDS011;8934;51.194;17.150;2022-10-03T01:30:46;7.07;;;3.20;;
17631;SDS011;8934;51.194;17.150;2022-10-03T01:33:38;6.57;;;3.45;;
17631;SDS011;8934;51.194;17.150;2022-10-03T01:36:31;8.70;;;2.95;;
17631;SDS011;8934;51.194;17.150;2022-10-03T01:39:26;6.10;;;3.38;;
17631;SDS011;8934;51.194;17.150;2022-10-03T01:42:19;10.13;;;3.85;;
17631;SDS011;8934;51.194;17.150;2022-10-03T01:45:22;9.18;;;3.13;;
17631;SDS011;8934;51.194;17.150;2022-10-03T01:48:18;6.70;;;3.67;;
17631;SDS011;8934;51.194;17.150;2022-10-03T01:51:09;7.30;;;4.13;;
17631;SDS011;8934;51.194;17.150;2022-10-03T01:54:05;11.73;;;4.43;;
17631;SDS011;8934;51.194;17.150;2022-10-03T01:57:00;6.90;;;3.40;;
17631;SDS011;8934;51.194;17.150;2022-10-03T01:59:57;6.68;;;3.65;;
17631;SDS011;8934;51.194;17.150;2022-10-03T02:02:59;9.10;;;4.22;;
17631;SDS011;8934;51.194;17.150;2022-10-03T02:05:55;6.50;;;3.22;;
17631;SDS011;8934;51.194;17.150;2022-10-03T02:08:49;8.25;;;3.88;;
17631;SDS011;8934;51.194;17.150;2022-10-03T02:11:43;9.30;;;3.45;;
17631;SDS011;8934;51.194;17.150;2022-10-03T02:14:50;9.50;;;3.58;;
17631;SDS011;8934;51.194;17.150;2022-10-03T02:17:45;7.80;;;3.70;;
17631;SDS011;8934;51.194;17.150;2022-10-03T02:20:44;7.10;;;3.45;;
17631;SDS011;8934;51.194;17.150;2022-10-03T02:23:39;7.15;;;3.78;;
17631;SDS011;8934;51.194;17.150;2022-10-03T02:26:44;9.35;;;3.78;;
17631;SDS011;8934;51.194;17.150;2022-10-03T02:30:01;8.75;;;4.88;;
17631;SDS011;8934;51.194;17.150;2022-10-03T02:36:36;12.30;;;4.60;;
17631;SDS011;8934;51.194;17.150;2022-10-03T02:43:16;7.88;;;4.50;;
17631;SDS011;8934;51.194;17.150;2022-10-03T02:46:42;9.57;;;4.10;;
17631;SDS011;8934;51.194;17.150;2022-10-03T03:00:06;11.10;;;3.80;;
17631;SDS011;8934;51.194;17.150;2022-10-03T03:03:21;7.05;;;4.72;;
17631;SDS011;8934;51.194;17.150;2022-10-03T03:06:31;8.07;;;3.67;;
17631;SDS011;8934;51.194;17.150;2022-10-03T03:10:06;9.68;;;3.92;;
17631;SDS011;8934;51.194;17.150;2022-10-03T03:16:43;11.63;;;3.95;;
17631;SDS011;8934;51.194;17.150;2022-10-03T03:19:49;11.15;;;3.90;;
17631;SDS011;8934;51.194;17.150;2022-10-03T03:22:52;8.52;;;4.15;;
17631;SDS011;8934;51.194;17.150;2022-10-03T03:25:59;9.40;;;4.50;;
17631;SDS011;8934;51.194;17.150;2022-10-03T03:29:00;10.65;;;3.90;;
17631;SDS011;8934;51.194;17.150;2022-10-03T03:31:58;12.35;;;3.92;;
17631;SDS011;8934;51.194;17.150;2022-10-03T03:34:53;12.23;;;4.05;;
17631;SDS011;8934;51.194;17.150;2022-10-03T03:37:50;11.77;;;4.25;;
17631;SDS011;8934;51.194;17.150;2022-10-03T03:40:50;9.10;;;3.30;;
17631;SDS011;8934;51.194;17.150;2022-10-03T03:44:08;8.02;;;3.53;;
17631;SDS011;8934;51.194;17.150;2022-10-03T03:47:15;13.85;;;4.22;;
17631;SDS011;8934;51.194;17.150;2022-10-03T03:53:43;8.30;;;3.72;;
17631;SDS011;8934;51.194;17.150;2022-10-03T03:57:02;9.52;;;4.57;;
17631;SDS011;8934;51.194;17.150;2022-10-03T04:00:03;6.30;;;3.92;;
17631;SDS011;8934;51.194;17.150;2022-10-03T04:03:11;3.97;;;3.50;;
17631;SDS011;8934;51.194;17.150;2022-10-03T04:06:25;11.88;;;4.30;;
17631;SDS011;8934;51.194;17.150;2022-10-03T04:09:30;9.18;;;3.60;;
17631;SDS011;8934;51.194;17.150;2022-10-03T04:12:38;11.15;;;3.92;;
17631;SDS011;8934;51.194;17.150;2022-10-03T04:15:53;10.57;;;4.43;;
17631;SDS011;8934;51.194;17.150;2022-10-03T04:18:56;10.90;;;3.85;;
17631;SDS011;8934;51.194;17.150;2022-10-03T04:21:56;8.65;;;4.20;;
17631;SDS011;8934;51.194;17.150;2022-10-03T04:25:17;9.15;;;3.50;;
17631;SDS011;8934;51.194;17.150;2022-10-03T04:28:29;8.30;;;3.83;;
17631;SDS011;8934;51.194;17.150;2022-10-03T04:31:31;5.55;;;3.30;;
17631;SDS011;8934;51.194;17.150;2022-10-03T04:34:31;10.45;;;3.50;;
17631;SDS011;8934;51.194;17.150;2022-10-03T04:37:31;9.52;;;3.20;;
17631;SDS011;8934;51.194;17.150;2022-10-03T04:40:26;8.18;;;3.42;;
17631;SDS011;8934;51.194;17.150;2022-10-03T04:43:30;5.30;;;3.00;;
17631;SDS011;8934;51.194;17.150;2022-10-03T04:46:29;9.25;;;2.60;;
17631;SDS011;8934;51.194;17.150;2022-10-03T04:49:22;9.50;;;4.18;;
17631;SDS011;8934;51.194;17.150;2022-10-03T04:52:20;8.80;;;2.88;;
17631;SDS011;8934;51.194;17.150;2022-10-03T04:55:16;7.45;;;3.58;;
17631;SDS011;8934;51.194;17.150;2022-10-03T04:58:14;10.52;;;3.30;;
17631;SDS011;8934;51.194;17.150;2022-10-03T05:01:14;9.07;;;3.10;;
17631;SDS011;8934;51.194;17.150;2022-10-03T05:04:07;5.57;;;3.05;;
17631;SDS011;8934;51.194;17.150;2022-10-03T05:07:13;9.57;;;3.33;;
17631;SDS011;8934;51.194;17.150;2022-10-03T05:10:19;7.97;;;3.10;;
17631;SDS011;8934;51.194;17.150;2022-10-03T05:13:17;10.68;;;3.67;;
17631;SDS011;8934;51.194;17.150;2022-10-03T05:16:15;7.60;;;2.75;;
17631;SDS011;8934;51.194;17.150;2022-10-03T05:19:20;9.43;;;2.90;;
17631;SDS011;8934;51.194;17.150;2022-10-03T05:22:31;8.13;;;3.80;;
17631;SDS011;8934;51.194;17.150;2022-10-03T05:25:30;10.57;;;3.13;;
17631;SDS011;8934;51.194;17.150;2022-10-03T05:28:30;6.80;;;2.80;;
17631;SDS011;8934;51.194;17.150;2022-10-03T05:31:28;7.32;;;2.58;;
17631;SDS011;8934;51.194;17.150;2022-10-03T05:34:32;8.00;;;3.22;;
17631;SDS011;8934;51.194;17.150;2022-10-03T05:37:37;6.03;;;3.00;;
17631;SDS011;8934;51.194;17.150;2022-10-03T05:40:40;9.38;;;3.38;;
17631;SDS011;8934;51.194;17.150;2022-10-03T05:43:34;12.00;;;3.40;;
17631;SDS011;8934;51.194;17.150;2022-10-03T05:46:39;6.72;;;3.28;;
17631;SDS011;8934;51.194;17.150;2022-10-03T05:49:47;9.23;;;3.08;;
17631;SDS011;8934;51.194;17.150;2022-10-03T05:52:50;5.88;;;3.25;;
17631;SDS011;8934;51.194;17.150;2022-10-03T05:55:52;7.00;;;3.42;;
17631;SDS011;8934;51.194;17.150;2022-10-03T05:59:06;8.90;;;2.92;;
17631;SDS011;8934;51.194;17.150;2022-10-03T06:02:27;8.18;;;2.97;;
17631;SDS011;8934;51.194;17.150;2022-10-03T06:05:32;10.82;;;4.10;;
17631;SDS011;8934;51.194;17.150;2022-10-03T06:14:59;9.65;;;2.95;;
17631;SDS011;8934;51.194;17.150;2022-10-03T06:18:01;6.15;;;2.53;;
17631;SDS011;8934;51.194;17.150;2022-10-03T06:21:08;8.00;;;2.85;;
17631;SDS011;8934;51.194;17.150;2022-10-03T06:24:34;7.03;;;2.80;;
17631;SDS011;8934;51.194;17.150;2022-10-03T06:31:17;8.93;;;3.40;;
17631;SDS011;8934;51.194;17.150;2022-10-03T06:45:19;4.22;;;3.53;;
17631;SDS011;8934;51.194;17.150;2022-10-03T06:52:20;4.80;;;3.25;;
17631;SDS011;8934;51.194;17.150;2022-10-03T06:59:05;10.30;;;3.55;;
17631;SDS011;8934;51.194;17.150;2022-10-03T07:05:38;5.85;;;2.63;;
17631;SDS011;8934;51.194;17.150;2022-10-03T07:09:05;11.43;;;3.67;;
17631;SDS011;8934;51.194;17.150;2022-10-03T07:15:54;2.90;;;2.58;;
17631;SDS011;8934;51.194;17.150;2022-10-03T07:19:29;5.82;;;3.03;;
17631;SDS011;8934;51.194;17.150;2022-10-03T07:22:35;6.43;;;3.83;;
17631;SDS011;8934;51.194;17.150;2022-10-03T07:29:40;6.05;;;4.22;;
17631;SDS011;8934;51.194;17.150;2022-10-03T07:39:55;3.22;;;2.47;;
17631;SDS011;8934;51.194;17.150;2022-10-03T07:43:23;4.63;;;2.83;;
17631;SDS011;8934;51.194;17.150;2022-10-03T08:06:28;4.10;;;2.95;;
17631;SDS011;8934;51.194;17.150;2022-10-03T08:16:01;4.88;;;1.90;;
17631;SDS011;8934;51.194;17.150;2022-10-03T09:01:32;2.60;;;1.20;;
17631;SDS011;8934;51.194;17.150;2022-10-03T09:04:41;2.33;;;1.50;;
17631;SDS011;8934;51.194;17.150;2022-10-03T09:08:19;3.38;;;1.52;;
17631;SDS011;8934;51.194;17.150;2022-10-03T09:15:02;4.30;;;3.28;;
17631;SDS011;8934;51.194;17.150;2022-10-03T09:18:19;2.97;;;1.73;;
17631;SDS011;8934;51.194;17.150;2022-10-03T09:25:10;2.47;;;1.70;;
17631;SDS011;8934;51.194;17.150;2022-10-03T09:31:51;3.67;;;1.85;;
17631;SDS011;8934;51.194;17.150;2022-10-03T09:45:28;3.38;;;2.10;;
17631;SDS011;8934;51.194;17.150;2022-10-03T09:48:29;3.53;;;1.95;;
17631;SDS011;8934;51.194;17.150;2022-10-03T09:51:32;4.72;;;2.05;;
17631;SDS011;8934;51.194;17.150;2022-10-03T09:58:15;3.75;;;1.70;;
17631;SDS011;8934;51.194;17.150;2022-10-03T10:01:28;6.05;;;1.90;;
17631;SDS011;8934;51.194;17.150;2022-10-03T10:04:32;4.22;;;1.75;;
17631;SDS011;8934;51.194;17.150;2022-10-03T10:11:20;2.17;;;1.27;;
17631;SDS011;8934;51.194;17.150;2022-10-03T10:14:33;3.20;;;1.70;;
17631;SDS011;8934;51.194;17.150;2022-10-03T10:17:47;4.70;;;1.92;;
17631;SDS011;8934;51.194;17.150;2022-10-03T10:21:10;5.00;;;1.50;;
17631;SDS011;8934;51.194;17.150;2022-10-03T10:24:40;2.35;;;1.60;;
17631;SDS011;8934;51.194;17.150;2022-10-03T10:28:21;3.17;;;1.80;;
17631;SDS011;8934;51.194;17.150;2022-10-03T10:31:43;3.05;;;1.75;;
17631;SDS011;8934;51.194;17.150;2022-10-03T10:39:08;4.22;;;1.92;;
17631;SDS011;8934;51.194;17.150;2022-10-03T10:42:34;4.60;;;1.83;;
17631;SDS011;8934;51.194;17.150;2022-10-03T10:45:48;3.95;;;1.80;;
17631;SDS011;8934;51.194;17.150;2022-10-03T10:49:16;2.83;;;1.92;;
17631;SDS011;8934;51.194;17.150;2022-10-03T10:59:31;3.55;;;1.98;;
17631;SDS011;8934;51.194;17.150;2022-10-03T11:13:34;3.30;;;2.17;;
17631;SDS011;8934;51.194;17.150;2022-10-03T11:17:05;4.28;;;1.38;;
17631;SDS011;8934;51.194;17.150;2022-10-03T11:23:49;2.65;;;1.63;;
17631;SDS011;8934;51.194;17.150;2022-10-03T11:30:47;4.43;;;2.03;;
17631;SDS011;8934;51.194;17.150;2022-10-03T11:34:04;3.78;;;1.80;;
17631;SDS011;8934;51.194;17.150;2022-10-03T11:37:23;2.50;;;1.88;;
17631;SDS011;8934;51.194;17.150;2022-10-03T11:43:44;3.92;;;1.42;;
17631;SDS011;8934;51.194;17.150;2022-10-03T11:50:28;3.40;;;1.35;;
17631;SDS011;8934;51.194;17.150;2022-10-03T11:53:30;4.05;;;1.55;;
17631;SDS011;8934;51.194;17.150;2022-10-03T11:56:35;4.18;;;1.88;;
17631;SDS011;8934;51.194;17.150;2022-10-03T11:59:29;3.70;;;1.27;;
17631;SDS011;8934;51.194;17.150;2022-10-03T12:02:37;2.10;;;1.27;;
17631;SDS011;8934;51.194;17.150;2022-10-03T12:05:48;2.53;;;0.98;;
17631;SDS011;8934;51.194;17.150;2022-10-03T12:09:03;1.27;;;0.90;;
17631;SDS011;8934;51.194;17.150;2022-10-03T12:12:02;1.35;;;1.00;;
17631;SDS011;8934;51.194;17.150;2022-10-03T12:14:58;1.95;;;0.90;;
17631;SDS011;8934;51.194;17.150;2022-10-03T12:17:54;0.80;;;0.75;;
17631;SDS011;8934;51.194;17.150;2022-10-03T12:24:02;3.53;;;0.90;;
17631;SDS011;8934;51.194;17.150;2022-10-03T12:27:05;1.98;;;0.90;;
17631;SDS011;8934;51.194;17.150;2022-10-03T12:30:02;1.80;;;1.00;;
17631;SDS011;8934;51.194;17.150;2022-10-03T12:33:04;2.28;;;1.15;;
17631;SDS011;8934;51.194;17.150;2022-10-03T12:36:07;2.05;;;1.15;;
17631;SDS011;8934;51.194;17.150;2022-10-03T12:39:01;2.58;;;1.00;;
17631;SDS011;8934;51.194;17.150;2022-10-03T12:42:04;2.00;;;1.20;;
17631;SDS011;8934;51.194;17.150;2022-10-03T12:45:05;1.80;;;1.30;;
17631;SDS011;8934;51.194;17.150;2022-10-03T12:51:24;1.67;;;1.00;;
17631;SDS011;8934;51.194;17.150;2022-10-03T12:54:26;3.20;;;1.35;;
17631;SDS011;8934;51.194;17.150;2022-10-03T13:00:44;2.85;;;1.10;;
17631;SDS011;8934;51.194;17.150;2022-10-03T13:03:43;3.30;;;1.30;;
17631;SDS011;8934;51.194;17.150;2022-10-03T13:06:43;3.10;;;1.40;;
17631;SDS011;8934;51.194;17.150;2022-10-03T13:10:05;3.28;;;1.35;;
17631;SDS011;8934;51.194;17.150;2022-10-03T13:13:04;6.10;;;1.60;;
17631;SDS011;8934;51.194;17.150;2022-10-03T13:16:10;2.72;;;1.48;;
17631;SDS011;8934;51.194;17.150;2022-10-03T13:19:07;2.95;;;1.52;;
17631;SDS011;8934;51.194;17.150;2022-10-03T13:22:03;3.35;;;1.55;;
17631;SDS011;8934;51.194;17.150;2022-10-03T13:27:57;2.92;;;1.75;;
17631;SDS011;8934;51.194;17.150;2022-10-03T13:30:54;3.35;;;1.70;;
17631;SDS011;8934;51.194;17.150;2022-10-03T13:33:48;5.28;;;1.77;;
17631;SDS011;8934;51.194;17.150;2022-10-03T13:36:41;3.00;;;1.60;;
17631;SDS011;8934;51.194;17.150;2022-10-03T13:39:36;3.67;;;1.88;;
17631;SDS011;8934;51.194;17.150;2022-10-03T13:42:31;3.92;;;1.75;;
17631;SDS011;8934;51.194;17.150;2022-10-03T13:45:24;4.03;;;1.70;;
17631;SDS011;8934;51.194;17.150;2022-10-03T13:48:13;2.75;;;1.50;;
17631;SDS011;8934;51.194;17.150;2022-10-03T13:51:07;1.40;;;1.30;;
17631;SDS011;8934;51.194;17.150;2022-10-03T13:54:07;3.05;;;1.92;;
17631;SDS011;8934;51.194;17.150;2022-10-03T13:57:02;4.38;;;1.70;;
17631;SDS011;8934;51.194;17.150;2022-10-03T13:59:58;1.63;;;1.45;;
17631;SDS011;8934;51.194;17.150;2022-10-03T14:03:02;4.40;;;1.92;;
17631;SDS011;8934;51.194;17.150;2022-10-03T14:06:08;2.80;;;1.50;;
17631;SDS011;8934;51.194;17.150;2022-10-03T14:12:23;3.47;;;1.60;;
17631;SDS011;8934;51.194;17.150;2022-10-03T14:15:41;5.60;;;2.35;;
17631;SDS011;8934;51.194;17.150;2022-10-03T14:18:38;3.80;;;1.80;;
17631;SDS011;8934;51.194;17.150;2022-10-03T14:24:47;3.95;;;2.08;;
17631;SDS011;8934;51.194;17.150;2022-10-03T14:27:51;4.47;;;1.90;;
17631;SDS011;8934;51.194;17.150;2022-10-03T14:30:46;3.35;;;1.70;;
17631;SDS011;8934;51.194;17.150;2022-10-03T14:33:52;8.15;;;2.20;;
17631;SDS011;8934;51.194;17.150;2022-10-03T14:36:46;3.67;;;1.38;;
17631;SDS011;8934;51.194;17.150;2022-10-03T14:39:39;3.38;;;1.50;;
17631;SDS011;8934;51.194;17.150;2022-10-03T14:42:35;7.60;;;1.83;;
17631;SDS011;8934;51.194;17.150;2022-10-03T14:45:31;3.80;;;1.85;;
17631;SDS011;8934;51.194;17.150;2022-10-03T14:48:25;3.42;;;1.90;;
17631;SDS011;8934;51.194;17.150;2022-10-03T14:51:18;4.68;;;2.10;;
17631;SDS011;8934;51.194;17.150;2022-10-03T14:54:15;5.57;;;2.05;;
17631;SDS011;8934;51.194;17.150;2022-10-03T14:57:12;7.35;;;2.10;;
17631;SDS011;8934;51.194;17.150;2022-10-03T15:00:21;6.85;;;2.33;;
17631;SDS011;8934;51.194;17.150;2022-10-03T15:03:23;1.88;;;1.60;;
17631;SDS011;8934;51.194;17.150;2022-10-03T15:06:30;5.80;;;2.20;;
17631;SDS011;8934;51.194;17.150;2022-10-03T15:09:21;2.72;;;1.75;;
17631;SDS011;8934;51.194;17.150;2022-10-03T15:12:19;4.28;;;1.98;;
17631;SDS011;8934;51.194;17.150;2022-10-03T15:15:12;3.13;;;2.00;;
17631;SDS011;8934;51.194;17.150;2022-10-03T15:18:04;6.70;;;2.00;;
17631;SDS011;8934;51.194;17.150;2022-10-03T15:20:55;4.10;;;1.80;;
17631;SDS011;8934;51.194;17.150;2022-10-03T15:23:44;4.90;;;2.17;;
17631;SDS011;8934;51.194;17.150;2022-10-03T15:26:35;4.53;;;1.67;;
17631;SDS011;8934;51.194;17.150;2022-10-03T15:29:24;4.53;;;1.80;;
17631;SDS011;8934;51.194;17.150;2022-10-03T15:32:18;6.60;;;1.80;;
17631;SDS011;8934;51.194;17.150;2022-10-03T15:35:13;5.40;;;1.83;;
17631;SDS011;8934;51.194;17.150;2022-10-03T15:38:08;4.53;;;1.95;;
17631;SDS011;8934;51.194;17.150;2022-10-03T15:41:05;4.47;;;1.27;;
17631;SDS011;8934;51.194;17.150;2022-10-03T15:43:56;4.38;;;1.73;;
17631;SDS011;8934;51.194;17.150;2022-10-03T15:46:50;6.00;;;2.35;;
17631;SDS011;8934;51.194;17.150;2022-10-03T15:49:43;3.08;;;1.52;;
17631;SDS011;8934;51.194;17.150;2022-10-03T15:52:36;3.40;;;1.83;;
17631;SDS011;8934;51.194;17.150;2022-10-03T15:55:31;6.93;;;2.05;;
17631;SDS011;8934;51.194;17.150;2022-10-03T15:58:28;4.30;;;2.20;;
17631;SDS011;8934;51.194;17.150;2022-10-03T16:01:19;7.60;;;3.05;;
17631;SDS011;8934;51.194;17.150;2022-10-03T16:04:13;9.45;;;4.05;;
17631;SDS011;8934;51.194;17.150;2022-10-03T16:07:05;14.23;;;11.27;;
17631;SDS011;8934;51.194;17.150;2022-10-03T16:10:00;9.10;;;8.15;;
17631;SDS011;8934;51.194;17.150;2022-10-03T16:13:08;10.57;;;6.65;;
17631;SDS011;8934;51.194;17.150;2022-10-03T16:16:13;5.53;;;4.00;;
17631;SDS011;8934;51.194;17.150;2022-10-03T16:19:19;7.47;;;5.75;;
17631;SDS011;8934;51.194;17.150;2022-10-03T16:22:15;11.15;;;6.60;;
17631;SDS011;8934;51.194;17.150;2022-10-03T16:25:11;43.78;;;33.55;;
17631;SDS011;8934;51.194;17.150;2022-10-03T16:28:03;26.77;;;20.98;;
17631;SDS011;8934;51.194;17.150;2022-10-03T16:30:58;23.98;;;15.30;;
17631;SDS011;8934;51.194;17.150;2022-10-03T16:33:50;43.97;;;34.13;;
17631;SDS011;8934;51.194;17.150;2022-10-03T16:36:44;47.60;;;37.33;;
17631;SDS011;8934;51.194;17.150;2022-10-03T16:39:34;19.65;;;16.80;;
17631;SDS011;8934;51.194;17.150;2022-10-03T16:42:24;17.10;;;13.82;;
17631;SDS011;8934;51.194;17.150;2022-10-03T16:45:18;13.00;;;10.63;;
17631;SDS011;8934;51.194;17.150;2022-10-03T16:48:13;6.32;;;5.72;;
17631;SDS011;8934;51.194;17.150;2022-10-03T16:51:25;6.25;;;4.53;;
17631;SDS011;8934;51.194;17.150;2022-10-03T16:54:24;7.15;;;4.10;;
17631;SDS011;8934;51.194;17.150;2022-10-03T16:57:15;7.55;;;4.07;;
17631;SDS011;8934;51.194;17.150;2022-10-03T17:00:11;6.25;;;3.55;;
17631;SDS011;8934;51.194;17.150;2022-10-03T17:03:03;13.85;;;8.57;;
17631;SDS011;8934;51.194;17.150;2022-10-03T17:06:00;10.88;;;6.60;;
17631;SDS011;8934;51.194;17.150;2022-10-03T17:08:52;6.45;;;5.68;;
17631;SDS011;8934;51.194;17.150;2022-10-03T17:11:45;8.20;;;5.10;;
17631;SDS011;8934;51.194;17.150;2022-10-03T17:14:37;13.90;;;12.27;;
17631;SDS011;8934;51.194;17.150;2022-10-03T17:17:29;10.77;;;9.27;;
17631;SDS011;8934;51.194;17.150;2022-10-03T17:20:32;6.88;;;5.82;;
17631;SDS011;8934;51.194;17.150;2022-10-03T17:23:27;12.70;;;8.85;;
17631;SDS011;8934;51.194;17.150;2022-10-03T17:26:22;8.85;;;6.00;;
17631;SDS011;8934;51.194;17.150;2022-10-03T17:29:15;8.32;;;4.97;;
17631;SDS011;8934;51.194;17.150;2022-10-03T17:32:10;8.10;;;4.00;;
17631;SDS011;8934;51.194;17.150;2022-10-03T17:35:06;8.57;;;6.28;;
17631;SDS011;8934;51.194;17.150;2022-10-03T18:04:13;11.30;;;7.75;;
17631;SDS011;8934;51.194;17.150;2022-10-03T20:50:33;7.13;;;3.25;;
17631;SDS011;8934;51.194;17.150;2022-10-03T20:53:27;7.05;;;2.90;;
17631;SDS011;8934;51.194;17.150;2022-10-03T20:56:17;5.47;;;3.15;;
17631;SDS011;8934;51.194;17.150;2022-10-03T20:59:10;6.18;;;2.40;;
17631;SDS011;8934;51.194;17.150;2022-10-03T21:02:00;5.68;;;2.85;;
17631;SDS011;8934;51.194;17.150;2022-10-03T21:04:53;6.28;;;4.07;;
17631;SDS011;8934;51.194;17.150;2022-10-03T21:07:45;8.60;;;3.92;;
17631;SDS011;8934;51.194;17.150;2022-10-03T21:10:36;6.00;;;4.20;;
17631;SDS011;8934;51.194;17.150;2022-10-03T21:13:28;5.10;;;3.15;;
17631;SDS011;8934;51.194;17.150;2022-10-03T21:16:19;7.03;;;4.05;;
17631;SDS011;8934;51.194;17.150;2022-10-03T21:19:12;4.38;;;3.28;;
17631;SDS011;8934;51.194;17.150;2022-10-03T21:22:03;3.90;;;2.65;;
17631;SDS011;8934;51.194;17.150;2022-10-03T21:24:57;3.03;;;2.17;;
17631;SDS011;8934;51.194;17.150;2022-10-03T21:27:51;4.38;;;2.70;;
17631;SDS011;8934;51.194;17.150;2022-10-03T21:30:44;7.35;;;2.90;;
17631;SDS011;8934;51.194;17.150;2022-10-03T21:33:46;5.70;;;2.75;;
17631;SDS011;8934;51.194;17.150;2022-10-03T21:36:47;3.88;;;2.50;;
17631;SDS011;8934;51.194;17.150;2022-10-03T21:39:40;7.05;;;2.70;;
17631;SDS011;8934;51.194;17.150;2022-10-03T21:42:39;5.40;;;2.05;;
17631;SDS011;8934;51.194;17.150;2022-10-03T21:45:42;5.18;;;2.33;;
17631;SDS011;8934;51.194;17.150;2022-10-03T21:48:41;8.57;;;2.42;;
17631;SDS011;8934;51.194;17.150;2022-10-03T21:51:58;4.68;;;2.83;;
17631;SDS011;8934;51.194;17.150;2022-10-03T21:54:57;9.45;;;3.55;;
17631;SDS011;8934;51.194;17.150;2022-10-03T21:58:04;5.85;;;2.63;;
17631;SDS011;8934;51.194;17.150;2022-10-03T22:01:05;6.82;;;4.05;;
17631;SDS011;8934;51.194;17.150;2022-10-03T22:04:00;6.13;;;2.88;;
17631;SDS011;8934;51.194;17.150;2022-10-03T22:06:55;4.60;;;3.72;;
17631;SDS011;8934;51.194;17.150;2022-10-03T22:09:50;10.40;;;4.53;;
17631;SDS011;8934;51.194;17.150;2022-10-03T22:12:41;4.43;;;3.40;;
17631;SDS011;8934;51.194;17.150;2022-10-03T22:15:35;4.15;;;3.55;;
17631;SDS011;8934;51.194;17.150;2022-10-03T22:18:32;10.35;;;3.15;;
17631;SDS011;8934;51.194;17.150;2022-10-03T22:21:29;8.27;;;2.42;;
17631;SDS011;8934;51.194;17.150;2022-10-03T22:24:26;3.53;;;1.95;;
17631;SDS011;8934;51.194;17.150;2022-10-03T22:27:22;8.38;;;2.60;;
17631;SDS011;8934;51.194;17.150;2022-10-03T22:30:16;5.32;;;1.85;;
17631;SDS011;8934;51.194;17.150;2022-10-03T22:33:08;5.15;;;2.50;;
17631;SDS011;8934;51.194;17.150;2022-10-03T22:36:03;6.53;;;2.58;;
17631;SDS011;8934;51.194;17.150;2022-10-03T22:38:55;6.18;;;2.03;;
17631;SDS011;8934;51.194;17.150;2022-10-03T22:41:44;5.13;;;2.47;;
17631;SDS011;8934;51.194;17.150;2022-10-03T22:44:35;7.82;;;2.53;;
17631;SDS011;8934;51.194;17.150;2022-10-03T22:47:28;10.75;;;2.75;;
17631;SDS011;8934;51.194;17.150;2022-10-03T22:50:20;6.97;;;2.33;;
